Time;durP1;ratioP1;P1;durP2;ratioP2;P2;SDS_P1;SDS_P2;PMS_P1;PMS_P2;Temp;Humidity;BMP_temperature;BMP_pressure;BME280_temperature;BME280_humidity;BME280_pressure;Samples;Min_cycle;Max_cycle;Signal;HPM_P1;HPM_P2
2022/04/07 00:01:04;;;;;;;15.85;3.13;;;9.30;99.90;;;;;;4992917;28;20137;-81
2022/04/07 00:03:29;;;;;;;10.40;2.88;;;9.30;99.90;;;;;;4975436;28;20034;-81
2022/04/07 00:05:55;;;;;;;10.60;3.05;;;9.30;99.90;;;;;;4960343;28;20049;-80
2022/04/07 00:08:21;;;;;;;11.80;2.60;;;9.30;99.90;;;;;;4992254;28;20069;-80
2022/04/07 00:10:48;;;;;;;11.00;2.55;;;9.30;99.90;;;;;;4977188;28;20042;-80
2022/04/07 00:13:14;;;;;;;8.27;2.33;;;9.20;99.90;;;;;;4976739;28;20054;-80
2022/04/07 00:15:40;;;;;;;12.73;3.47;;;9.20;99.90;;;;;;4990408;28;20492;-80
2022/04/07 00:18:06;;;;;;;10.38;2.80;;;9.20;99.90;;;;;;4992269;28;20049;-80
2022/04/07 00:20:33;;;;;;;13.80;2.97;;;9.20;99.90;;;;;;4975373;28;20038;-80
2022/04/07 00:22:59;;;;;;;16.38;3.80;;;9.20;99.90;;;;;;4976771;28;20034;-80
2022/04/07 00:25:28;;;;;;;17.08;3.17;;;9.30;99.90;;;;;;4959419;28;20113;-80
2022/04/07 00:27:54;;;;;;;16.45;3.65;;;9.30;99.90;;;;;;4992372;28;20077;-80
2022/04/07 00:30:21;;;;;;;13.63;3.13;;;9.30;99.90;;;;;;4989998;28;20030;-80
2022/04/07 00:32:50;;;;;;;14.38;3.58;;;9.30;99.90;;;;;;4977301;28;20034;-81
2022/04/07 00:35:17;;;;;;;15.57;3.33;;;9.30;99.90;;;;;;4962669;28;20046;-80
2022/04/07 00:37:43;;;;;;;16.50;3.95;;;9.30;99.90;;;;;;4996233;28;20038;-80
2022/04/07 00:40:10;;;;;;;19.65;3.97;;;9.30;99.90;;;;;;4995400;28;20073;-80
2022/04/07 00:42:50;;;;;;;15.65;3.85;;;9.30;99.90;;;;;;4997224;28;20041;-80
2022/04/07 00:45:17;;;;;;;20.85;3.40;;;9.30;99.90;;;;;;4995370;28;20377;-81
2022/04/07 00:47:44;;;;;;;20.98;3.78;;;9.30;99.90;;;;;;4996444;28;20384;-81
2022/04/07 00:50:11;;;;;;;18.00;3.72;;;9.30;99.90;;;;;;4996512;28;20080;-81
2022/04/07 00:52:41;;;;;;;19.20;4.43;;;9.30;99.90;;;;;;4995920;28;20037;-80
2022/04/07 00:55:09;;;;;;;14.38;2.90;;;9.30;99.90;;;;;;4996554;28;20052;-85
2022/04/07 00:57:37;;;;;;;19.95;3.90;;;9.30;99.90;;;;;;4980311;28;20559;-85
2022/04/07 01:00:05;;;;;;;18.67;3.47;;;9.30;99.90;;;;;;4982983;28;20045;-85
2022/04/07 01:02:30;;;;;;;18.88;4.07;;;9.30;99.90;;;;;;4986456;28;20046;-85
2022/04/07 01:04:57;;;;;;;22.13;4.22;;;9.20;99.90;;;;;;5011129;28;20033;-85
2022/04/07 01:07:26;;;;;;;21.35;4.65;;;9.10;99.90;;;;;;4991164;28;20490;-85
2022/04/07 01:09:52;;;;;;;16.88;3.58;;;9.10;99.90;;;;;;4982718;28;20141;-85
2022/04/07 01:12:18;;;;;;;23.15;3.78;;;9.10;99.90;;;;;;4995148;28;20046;-84
2022/04/07 01:15:01;;;;;;;17.77;3.42;;;9.20;99.90;;;;;;4978675;28;20037;-84
2022/04/07 01:17:29;;;;;;;24.83;4.70;;;8.90;99.90;;;;;;4976109;28;20042;-84
2022/04/07 01:19:55;;;;;;;17.73;3.97;;;8.90;99.90;;;;;;4993992;28;20050;-84
2022/04/07 01:22:22;;;;;;;28.08;4.30;;;8.90;99.90;;;;;;4983954;28;20042;-85
2022/04/07 01:24:48;;;;;;;19.85;3.83;;;8.80;99.90;;;;;;4995879;28;20052;-85
2022/04/07 01:27:16;;;;;;;22.80;3.70;;;8.90;99.90;;;;;;4979810;28;20030;-85
2022/04/07 01:29:42;;;;;;;19.55;3.65;;;8.90;99.90;;;;;;4995911;28;20065;-80
2022/04/07 01:32:14;;;;;;;24.25;4.57;;;8.90;99.90;;;;;;4979117;28;20037;-81
2022/04/07 01:34:40;;;;;;;32.03;5.75;;;8.90;99.90;;;;;;4995561;28;20090;-80
2022/04/07 01:37:07;;;;;;;20.83;4.00;;;9.00;99.90;;;;;;5012046;28;20092;-80
2022/04/07 01:39:35;;;;;;;23.15;5.45;;;9.00;99.90;;;;;;4994339;28;20046;-80
2022/04/07 01:42:01;;;;;;;25.00;4.85;;;9.00;99.90;;;;;;4995436;28;20038;-80
2022/04/07 01:44:28;;;;;;;23.85;3.78;;;9.00;99.90;;;;;;4978318;28;20152;-80
2022/04/07 01:46:56;;;;;;;19.27;4.50;;;9.10;99.90;;;;;;4994115;28;20049;-81
2022/04/07 01:49:23;;;;;;;24.52;5.20;;;9.10;99.90;;;;;;4993711;28;20515;-81
2022/04/07 01:51:49;;;;;;;23.08;4.20;;;9.10;99.90;;;;;;4987987;28;20080;-82
2022/04/07 01:54:16;;;;;;;27.10;5.30;;;9.20;99.90;;;;;;4978582;28;20034;-81
2022/04/07 01:56:42;;;;;;;20.23;4.15;;;9.10;99.90;;;;;;4994106;28;21091;-81
2022/04/07 01:59:09;;;;;;;24.33;4.30;;;9.20;99.90;;;;;;4972346;28;20453;-81
2022/04/07 02:01:36;;;;;;;21.40;4.57;;;9.20;99.90;;;;;;4993641;28;20092;-83
2022/04/07 02:04:02;;;;;;;27.10;4.85;;;9.20;99.90;;;;;;4995981;28;20092;-83
2022/04/07 02:06:28;;;;;;;18.33;4.32;;;9.10;99.90;;;;;;4964120;28;20431;-83
2022/04/07 02:08:54;;;;;;;26.73;4.40;;;9.10;99.90;;;;;;4999059;28;20038;-82
2022/04/07 02:11:22;;;;;;;23.00;4.53;;;9.10;99.90;;;;;;4993852;28;20068;-83
2022/04/07 02:13:49;;;;;;;22.75;4.25;;;9.20;99.90;;;;;;4992008;28;20057;-85
2022/04/07 02:16:14;;;;;;;27.52;4.75;;;9.20;99.90;;;;;;4998279;28;20045;-85
2022/04/07 02:18:41;;;;;;;24.42;4.32;;;9.20;99.90;;;;;;4996872;28;20044;-81
2022/04/07 02:21:08;;;;;;;28.23;4.90;;;9.20;99.90;;;;;;4998170;28;20052;-81
2022/04/07 02:23:41;;;;;;;24.20;4.63;;;9.20;99.90;;;;;;5014430;28;20048;-80
2022/04/07 02:26:18;;;;;;;25.58;4.20;;;9.20;99.90;;;;;;4997334;28;20147;-80
2022/04/07 02:28:44;;;;;;;23.42;4.65;;;9.20;99.90;;;;;;4997645;28;20030;-80
2022/04/07 02:31:11;;;;;;;27.00;4.88;;;9.20;99.90;;;;;;4990403;28;20504;-80
2022/04/07 02:33:37;;;;;;;21.33;4.40;;;9.20;99.90;;;;;;5013982;28;20056;-80
2022/04/07 02:36:07;;;;;;;21.45;4.80;;;9.20;99.90;;;;;;4980812;28;20045;-81
2022/04/07 02:38:34;;;;;;;21.45;3.83;;;9.20;99.90;;;;;;4997614;28;20563;-81
2022/04/07 02:41:00;;;;;;;24.90;4.20;;;9.20;99.90;;;;;;4994432;28;20419;-81
2022/04/07 02:43:26;;;;;;;20.85;3.97;;;9.20;99.90;;;;;;4980879;28;20052;-81
2022/04/07 02:45:52;;;;;;;18.40;3.90;;;9.20;99.90;;;;;;4996645;28;20048;-81
2022/04/07 02:48:17;;;;;;;16.13;3.63;;;9.30;99.90;;;;;;4998655;28;20034;-81
2022/04/07 02:50:46;;;;;;;24.98;3.97;;;9.30;99.90;;;;;;4982561;28;20439;-81
2022/04/07 02:53:14;;;;;;;21.88;3.90;;;9.30;99.90;;;;;;4998632;28;20414;-81
2022/04/07 02:55:40;;;;;;;19.30;4.15;;;9.30;99.90;;;;;;4998368;28;20069;-81
2022/04/07 02:58:06;;;;;;;18.80;4.15;;;9.30;99.90;;;;;;5015011;28;20399;-81
2022/04/07 03:00:31;;;;;;;23.25;3.75;;;9.30;99.90;;;;;;4982101;28;20037;-81
2022/04/07 03:02:57;;;;;;;20.38;3.97;;;9.20;99.90;;;;;;4998651;28;20095;-81
2022/04/07 03:05:23;;;;;;;18.77;3.95;;;9.40;99.90;;;;;;4982269;28;20049;-81
2022/04/07 03:07:49;;;;;;;23.40;4.07;;;9.70;99.90;;;;;;4998588;28;20045;-81
2022/04/07 03:10:15;;;;;;;16.20;3.55;;;9.30;99.90;;;;;;5013282;28;20069;-81
2022/04/07 03:12:41;;;;;;;21.08;4.32;;;9.30;99.90;;;;;;4966159;28;20042;-80
2022/04/07 03:15:08;;;;;;;13.73;3.60;;;9.30;99.90;;;;;;4997720;28;20116;-81
2022/04/07 03:17:34;;;;;;;24.83;4.13;;;9.40;99.90;;;;;;4998285;28;20044;-81
2022/04/07 03:20:03;;;;;;;20.25;3.63;;;9.50;99.90;;;;;;4965934;28;20042;-80
2022/04/07 03:22:28;;;;;;;19.92;4.00;;;9.40;99.90;;;;;;4966333;28;20048;-81
2022/04/07 03:24:54;;;;;;;25.83;4.22;;;9.40;99.90;;;;;;4981951;28;20038;-81
2022/04/07 03:27:20;;;;;;;21.70;4.18;;;9.40;99.90;;;;;;5013911;28;20439;-81
2022/04/07 03:29:46;;;;;;;24.10;4.65;;;9.40;99.90;;;;;;5014118;28;20045;-81
2022/04/07 03:32:12;;;;;;;24.13;4.72;;;9.40;99.90;;;;;;4976589;28;20121;-81
2022/04/07 03:34:37;;;;;;;22.83;4.47;;;9.50;99.90;;;;;;4997771;28;20564;-82
2022/04/07 03:37:06;;;;;;;23.02;4.45;;;9.40;99.90;;;;;;4997696;28;20038;-81
2022/04/07 03:39:33;;;;;;;24.98;5.22;;;9.40;99.90;;;;;;4981495;28;20087;-82
2022/04/07 03:41:59;;;;;;;19.95;3.95;;;9.50;99.90;;;;;;4995832;28;20128;-84
2022/04/07 03:44:25;;;;;;;24.92;4.47;;;9.50;99.90;;;;;;5013838;28;20046;-84
2022/04/07 03:46:51;;;;;;;24.15;4.57;;;9.50;99.90;;;;;;5008488;28;20137;-84
2022/04/07 03:49:17;;;;;;;23.55;4.63;;;9.60;99.90;;;;;;4983913;28;20117;-84
2022/04/07 03:51:42;;;;;;;28.98;4.82;;;9.50;99.90;;;;;;4981806;28;20132;-85
2022/04/07 03:54:08;;;;;;;26.52;5.30;;;9.50;99.90;;;;;;4997538;28;20493;-85
2022/04/07 03:56:34;;;;;;;25.00;4.50;;;9.40;99.90;;;;;;4997667;28;20073;-84
2022/04/07 03:59:00;;;;;;;29.75;5.38;;;9.40;99.90;;;;;;4981102;28;20037;-84
2022/04/07 04:01:29;;;;;;;24.80;4.78;;;9.30;99.90;;;;;;4981313;28;20034;-83
2022/04/07 04:03:55;;;;;;;23.75;5.20;;;9.30;99.90;;;;;;4997662;28;20403;-83
2022/04/07 04:06:21;;;;;;;27.02;5.28;;;9.20;99.90;;;;;;4997506;28;20038;-83
2022/04/07 04:08:47;;;;;;;27.15;4.90;;;9.20;99.90;;;;;;4989498;28;20528;-84
2022/04/07 04:11:13;;;;;;;30.65;5.53;;;9.10;99.90;;;;;;4997411;28;20038;-84
2022/04/07 04:13:40;;;;;;;38.75;6.57;;;9.00;99.90;;;;;;4980979;28;20064;-84
2022/04/07 04:16:08;;;;;;;30.33;6.07;;;9.00;99.90;;;;;;5008888;28;20046;-81
2022/04/07 04:18:34;;;;;;;38.08;6.18;;;9.00;99.90;;;;;;4981039;28;20484;-81
2022/04/07 04:21:01;;;;;;;29.00;5.75;;;9.00;99.90;;;;;;4997145;28;20432;-81
2022/04/07 04:23:26;;;;;;;31.25;5.97;;;8.90;99.90;;;;;;4964560;28;20037;-81
2022/04/07 04:25:52;;;;;;;34.17;5.97;;;8.90;99.90;;;;;;4980094;28;20061;-81
2022/04/07 04:28:18;;;;;;;29.65;5.97;;;8.90;99.90;;;;;;5013321;28;20038;-80
2022/04/07 04:30:43;;;;;;;35.08;6.95;;;8.90;99.90;;;;;;4958942;28;20121;-81
2022/04/07 04:33:10;;;;;;;40.35;7.05;;;8.80;99.90;;;;;;4979575;28;20100;-83
2022/04/07 04:35:36;;;;;;;43.47;7.10;;;8.80;99.90;;;;;;4996735;28;20041;-83
2022/04/07 04:38:02;;;;;;;34.15;6.95;;;8.80;99.90;;;;;;4996746;28;20096;-83
2022/04/07 04:40:28;;;;;;;31.45;6.18;;;8.70;99.90;;;;;;4996856;28;20042;-83
2022/04/07 04:42:53;;;;;;;38.58;7.18;;;8.60;99.90;;;;;;4996645;28;20448;-80
2022/04/07 04:45:19;;;;;;;29.40;5.68;;;8.60;99.90;;;;;;4996526;28;20080;-81
2022/04/07 04:47:45;;;;;;;32.65;6.30;;;8.60;99.90;;;;;;4996590;28;20030;-81
2022/04/07 04:50:13;;;;;;;36.83;5.85;;;8.70;99.90;;;;;;4973907;28;20061;-81
2022/04/07 04:52:39;;;;;;;35.50;6.55;;;8.60;99.90;;;;;;4996413;28;20092;-81
2022/04/07 04:55:05;;;;;;;29.30;5.10;;;8.60;99.90;;;;;;4980343;28;20041;-81
2022/04/07 04:57:31;;;;;;;32.92;6.15;;;8.60;99.90;;;;;;4979986;28;20041;-80
2022/04/07 04:59:56;;;;;;;34.20;5.90;;;8.70;99.90;;;;;;5012320;28;20087;-80
2022/04/07 05:02:22;;;;;;;30.92;5.75;;;8.60;99.90;;;;;;4996102;28;20045;-80
2022/04/07 05:04:48;;;;;;;34.22;6.22;;;8.80;99.90;;;;;;4996094;28;20041;-80
2022/04/07 05:07:13;;;;;;;17.58;3.60;;;8.50;99.90;;;;;;5012223;28;20038;-80
2022/04/07 05:09:39;;;;;;;11.30;3.00;;;8.30;99.90;;;;;;4995981;28;20038;-80
2022/04/07 05:12:05;;;;;;;17.42;3.10;;;7.80;99.90;;;;;;4993901;28;20041;-80
2022/04/07 05:14:31;;;;;;;17.17;3.17;;;7.50;99.90;;;;;;4996407;28;20041;-80
2022/04/07 05:16:57;;;;;;;13.77;3.08;;;8.10;99.90;;;;;;5012441;28;20049;-79
2022/04/07 05:19:22;;;;;;;20.25;4.25;;;7.10;99.90;;;;;;5011818;28;20081;-79
2022/04/07 05:21:50;;;;;;;14.15;3.38;;;7.00;99.90;;;;;;4963735;28;20046;-84
2022/04/07 05:24:19;;;;;;;14.68;3.28;;;6.90;99.90;;;;;;4995965;28;20126;-84
2022/04/07 05:26:45;;;;;;;11.50;2.30;;;7.30;99.90;;;;;;4979401;28;20380;-84
2022/04/07 05:29:11;;;;;;;9.27;2.38;;;7.50;99.90;;;;;;5015277;28;20120;-79
2022/04/07 05:31:37;;;;;;;7.10;1.52;;;7.40;99.90;;;;;;4987648;28;20074;-79
2022/04/07 05:34:03;;;;;;;10.80;2.40;;;6.80;99.90;;;;;;4995828;28;20049;-79
2022/04/07 05:36:29;;;;;;;10.02;2.63;;;6.50;99.90;;;;;;5012325;28;20042;-79
2022/04/07 05:38:54;;;;;;;8.85;1.77;;;6.30;99.90;;;;;;5012469;28;20586;-84
2022/04/07 05:41:20;;;;;;;9.82;2.13;;;6.20;99.90;;;;;;4986413;28;20049;-85
2022/04/07 05:43:46;;;;;;;11.00;2.40;;;6.10;99.90;;;;;;4978629;28;20038;-84
2022/04/07 05:46:12;;;;;;;8.30;1.80;;;6.10;99.90;;;;;;4993031;28;20049;-84
2022/04/07 05:48:38;;;;;;;9.80;1.98;;;6.00;99.90;;;;;;5002342;23;20050;-84
2022/04/07 05:51:03;;;;;;;11.70;1.48;;;5.90;99.90;;;;;;5020241;28;20074;-84
2022/04/07 05:53:29;;;;;;;9.52;1.67;;;5.90;99.90;;;;;;4997028;28;20038;-84
2022/04/07 05:55:58;;;;;;;12.13;2.17;;;6.00;99.90;;;;;;4974933;28;20129;-78
2022/04/07 05:58:24;;;;;;;7.60;2.20;;;5.90;99.90;;;;;;4974885;28;20153;-78
2022/04/07 06:00:50;;;;;;;9.10;2.10;;;5.80;99.90;;;;;;4987681;28;20046;-78
2022/04/07 06:03:16;;;;;;;7.25;1.63;;;5.70;99.90;;;;;;5006254;28;20070;-78
2022/04/07 06:05:41;;;;;;;7.93;1.85;;;5.70;99.90;;;;;;4990439;28;20038;-78
2022/04/07 06:08:07;;;;;;;8.00;1.70;;;5.60;99.90;;;;;;4988890;28;20108;-78
2022/04/07 06:10:34;;;;;;;8.80;1.77;;;5.60;99.90;;;;;;4985864;28;20519;-78
2022/04/07 06:13:00;;;;;;;8.60;1.63;;;5.60;99.90;;;;;;4971078;28;20049;-78
2022/04/07 06:15:26;;;;;;;5.50;1.50;;;5.50;99.90;;;;;;4969862;28;20050;-78
2022/04/07 06:17:52;;;;;;;9.00;1.70;;;5.60;99.90;;;;;;4968744;28;20042;-78
2022/04/07 06:20:18;;;;;;;3.53;1.23;;;5.50;99.90;;;;;;4987903;28;20046;-79
2022/04/07 06:22:45;;;;;;;5.55;1.67;;;6.10;99.90;;;;;;4988109;28;20394;-78
2022/04/07 06:25:11;;;;;;;8.18;1.98;;;5.60;99.90;;;;;;4973919;28;20541;-78
2022/04/07 06:27:43;;;;;;;8.40;1.95;;;6.00;99.90;;;;;;4989749;28;20038;-78
2022/04/07 06:30:11;;;;;;;4.20;1.52;;;5.60;99.90;;;;;;4974600;28;20137;-79
2022/04/07 06:32:37;;;;;;;8.57;1.80;;;5.60;99.90;;;;;;4989615;28;20073;-80
2022/04/07 06:35:05;;;;;;;5.65;1.27;;;5.90;99.90;;;;;;4999132;28;20049;-80
2022/04/07 06:37:31;;;;;;;6.10;1.65;;;5.70;99.90;;;;;;4992682;28;20053;-80
2022/04/07 06:40:03;;;;;;;7.65;1.60;;;5.60;99.90;;;;;;4994410;28;20362;-80
2022/04/07 06:42:29;;;;;;;7.47;1.70;;;5.70;99.90;;;;;;4998044;28;20435;-83
2022/04/07 06:44:55;;;;;;;11.18;2.10;;;5.90;99.90;;;;;;4994296;28;20038;-79
2022/04/07 06:47:24;;;;;;;8.50;1.75;;;5.70;99.90;;;;;;4992344;28;20069;-79
2022/04/07 06:49:51;;;;;;;7.45;1.52;;;5.80;99.90;;;;;;4976130;28;20034;-79
2022/04/07 06:52:17;;;;;;;6.70;1.70;;;6.80;99.90;;;;;;4983161;28;20041;-79
2022/04/07 06:54:43;;;;;;;8.00;1.58;;;5.90;99.90;;;;;;4963214;28;20081;-78
2022/04/07 06:57:09;;;;;;;7.68;1.80;;;5.90;99.90;;;;;;4980447;28;20065;-79
2022/04/07 06:59:35;;;;;;;9.88;1.67;;;6.50;99.90;;;;;;4986458;28;20494;-79
2022/04/07 07:02:00;;;;;;;5.57;1.40;;;6.00;99.90;;;;;;4969745;28;20078;-79
2022/04/07 07:04:26;;;;;;;6.30;1.45;;;6.10;99.90;;;;;;4997226;28;20046;-79
2022/04/07 07:06:52;;;;;;;8.32;1.92;;;6.10;99.90;;;;;;4975619;28;20043;-79
2022/04/07 07:09:17;;;;;;;8.18;1.83;;;6.10;99.90;;;;;;4955653;28;20539;-79
2022/04/07 07:11:43;;;;;;;5.28;1.70;;;6.10;99.90;;;;;;4977185;28;20077;-79
2022/04/07 07:14:09;;;;;;;9.13;2.03;;;6.20;99.90;;;;;;4975939;28;20389;-79
2022/04/07 07:16:34;;;;;;;9.77;2.08;;;6.20;99.90;;;;;;4976450;28;20491;-79
2022/04/07 07:19:00;;;;;;;10.73;1.77;;;6.30;99.90;;;;;;4975734;28;20034;-83
2022/04/07 07:21:26;;;;;;;7.50;1.65;;;6.30;99.90;;;;;;4992269;28;20080;-83
2022/04/07 07:23:52;;;;;;;7.85;2.00;;;6.30;99.90;;;;;;4974910;28;20092;-83
2022/04/07 07:26:17;;;;;;;9.60;2.03;;;6.40;99.90;;;;;;4980475;28;20088;-83
2022/04/07 07:28:43;;;;;;;10.27;1.80;;;6.10;99.90;;;;;;4961155;28;20116;-83
2022/04/07 07:31:09;;;;;;;6.70;2.00;;;6.50;99.90;;;;;;4976502;28;20027;-83
2022/04/07 07:33:34;;;;;;;7.20;1.90;;;6.60;99.90;;;;;;4975782;28;20042;-83
2022/04/07 07:36:00;;;;;;;9.23;2.10;;;6.50;99.90;;;;;;4976230;28;20042;-80
2022/04/07 07:38:25;;;;;;;7.72;1.83;;;6.70;99.90;;;;;;4976604;28;20041;-80
2022/04/07 07:40:51;;;;;;;8.68;1.88;;;6.80;99.90;;;;;;4969910;28;20563;-80
2022/04/07 07:43:17;;;;;;;8.18;1.80;;;7.40;99.90;;;;;;4976832;28;20137;-80
2022/04/07 07:45:43;;;;;;;11.88;2.60;;;7.70;99.90;;;;;;4976840;28;20081;-80
2022/04/07 07:48:08;;;;;;;7.55;1.83;;;8.00;99.90;;;;;;5014272;28;20153;-81
2022/04/07 07:50:38;;;;;;;9.43;2.10;;;8.30;99.90;;;;;;4992068;28;20046;-81
2022/04/07 07:53:04;;;;;;;9.73;1.70;;;9.20;99.90;;;;;;4991547;28;20077;-80
2022/04/07 07:55:29;;;;;;;9.50;1.75;;;9.90;99.90;;;;;;4982276;28;20042;-80
2022/04/07 07:57:55;;;;;;;9.88;1.77;;;10.10;99.90;;;;;;5005137;28;20129;-81
2022/04/07 08:00:23;;;;;;;7.93;1.98;;;10.00;99.90;;;;;;4999625;28;20129;-81
2022/04/07 08:02:49;;;;;;;4.53;1.35;;;10.40;99.90;;;;;;4994079;28;20046;-80
2022/04/07 08:05:15;;;;;;;8.65;1.70;;;10.70;99.90;;;;;;4998266;28;20038;-81
2022/04/07 08:07:42;;;;;;;10.98;1.90;;;10.50;99.90;;;;;;5003607;28;20037;-81
2022/04/07 08:10:09;;;;;;;6.85;1.45;;;10.50;99.90;;;;;;4981908;28;20129;-81
2022/04/07 08:12:35;;;;;;;5.30;1.60;;;10.90;99.90;;;;;;4978067;28;20093;-81
2022/04/07 08:15:01;;;;;;;6.47;1.48;;;11.50;99.90;;;;;;5001618;28;20034;-81
2022/04/07 08:17:27;;;;;;;5.50;1.77;;;12.00;99.90;;;;;;4995535;28;20556;-81
2022/04/07 08:19:53;;;;;;;5.28;1.42;;;12.20;99.90;;;;;;4997866;28;20043;-82
2022/04/07 08:22:18;;;;;;;8.63;1.67;;;12.60;99.90;;;;;;4989072;28;20037;-82
2022/04/07 08:24:44;;;;;;;5.85;1.67;;;12.60;99.90;;;;;;4995466;28;20477;-83
2022/04/07 08:27:12;;;;;;;6.38;1.55;;;12.90;99.90;;;;;;4983375;28;20030;-84
2022/04/07 08:29:38;;;;;;;7.03;1.70;;;12.90;99.90;;;;;;5003011;28;20045;-84
2022/04/07 08:32:04;;;;;;;5.03;1.63;;;12.50;99.90;;;;;;4996141;28;20038;-83
2022/04/07 08:34:30;;;;;;;6.38;1.33;;;12.40;99.90;;;;;;4997146;28;20046;-84
2022/04/07 08:36:56;;;;;;;6.28;1.52;;;12.70;99.90;;;;;;5000833;28;20045;-84
2022/04/07 08:39:21;;;;;;;7.00;1.42;;;13.00;99.90;;;;;;4989138;28;20053;-83
2022/04/07 08:41:48;;;;;;;8.85;1.80;;;13.30;99.90;;;;;;4985702;28;20049;-85
2022/04/07 08:44:16;;;;;;;10.15;1.95;;;13.50;99.90;;;;;;4997037;28;20400;-85
2022/04/07 08:46:56;;;;;;;9.05;2.63;;;13.30;99.90;;;;;;5000986;28;20504;-85
2022/04/07 08:49:23;;;;;;;6.25;1.40;;;13.10;99.90;;;;;;5022260;28;20096;-85
2022/04/07 08:51:53;;;;;;;8.35;1.80;;;12.80;99.90;;;;;;4998562;28;20123;-85
2022/04/07 08:54:19;;;;;;;8.07;1.88;;;12.70;99.90;;;;;;4975437;28;20049;-85
2022/04/07 08:56:46;;;;;;;7.35;1.80;;;13.40;99.90;;;;;;4983112;28;20041;-82
2022/04/07 08:59:12;;;;;;;7.38;2.17;;;13.50;99.90;;;;;;4998374;28;20037;-84
2022/04/07 09:01:37;;;;;;;11.55;2.63;;;13.30;99.90;;;;;;4988247;28;20030;-84
2022/04/07 09:04:04;;;;;;;11.48;2.33;;;13.60;99.90;;;;;;5000352;28;20045;-83
2022/04/07 09:06:33;;;;;;;13.27;2.30;;;13.60;99.90;;;;;;4993077;28;20045;-84
2022/04/07 09:09:14;;;;;;;7.93;2.40;;;13.00;99.90;;;;;;4999416;28;20120;-84
2022/04/07 09:11:40;;;;;;;9.07;2.30;;;13.00;99.90;;;;;;5023408;28;20053;-84
2022/04/07 09:14:09;;;;;;;9.25;2.15;;;12.10;99.90;;;;;;5001204;28;20132;-83
2022/04/07 09:16:38;;;;;;;12.73;2.42;;;11.60;99.90;;;;;;4980792;28;20182;-81
2022/04/07 09:19:04;;;;;;;10.15;2.10;;;11.70;99.90;;;;;;4997700;28;20136;-81
2022/04/07 09:21:34;;;;;;;11.98;2.58;;;11.60;99.90;;;;;;4996687;28;20049;-81
2022/04/07 09:24:01;;;;;;;9.13;2.53;;;11.70;99.90;;;;;;5000856;28;20034;-82
2022/04/07 09:26:29;;;;;;;10.82;2.20;;;11.70;99.90;;;;;;4984737;28;20040;-82
2022/04/07 09:28:58;;;;;;;10.95;2.55;;;11.30;99.90;;;;;;5005584;28;20382;-80
2022/04/07 09:31:24;;;;;;;13.85;3.08;;;11.00;99.90;;;;;;4999410;28;20048;-81
2022/04/07 09:33:54;;;;;;;10.13;2.10;;;10.80;99.90;;;;;;4980618;28;20050;-81
2022/04/07 09:36:21;;;;;;;7.35;2.40;;;10.60;99.90;;;;;;4996095;28;20042;-85
2022/04/07 09:38:54;;;;;;;15.40;3.00;;;10.40;99.90;;;;;;4982840;28;20485;-84
2022/04/07 09:41:21;;;;;;;18.73;3.10;;;9.90;99.90;;;;;;4999181;28;20068;-84
2022/04/07 09:43:58;;;;;;;15.52;3.45;;;9.60;99.90;;;;;;4999137;28;20053;-84
2022/04/07 09:46:26;;;;;;;11.40;2.55;;;9.40;99.90;;;;;;4981181;28;20125;-84
2022/04/07 09:49:07;;;;;;;14.45;2.67;;;9.40;99.90;;;;;;5011514;28;20492;-84
2022/04/07 09:51:44;;;;;;;12.48;2.72;;;9.50;99.90;;;;;;4996487;28;20492;-85
2022/04/07 09:54:10;;;;;;;;;;;9.80;99.90;;;;;;4980980;28;20045;-86
2022/04/07 09:56:37;;;;;;;10.20;2.38;;;10.00;99.90;;;;;;4979097;28;19925;-86
2022/04/07 09:59:07;;;;;;;11.48;2.60;;;10.60;99.90;;;;;;5000062;28;20046;-85
2022/04/07 10:01:34;;;;;;;12.85;2.35;;;10.60;99.90;;;;;;4997606;28;20046;-85
2022/04/07 10:04:02;;;;;;;9.48;2.50;;;10.30;99.90;;;;;;4999903;28;20431;-84
2022/04/07 10:06:30;;;;;;;9.32;2.10;;;9.50;99.90;;;;;;5006582;28;20042;-80
2022/04/07 10:08:58;;;;;;;11.30;2.30;;;9.00;99.90;;;;;;5002157;28;20046;-80
2022/04/07 10:11:24;;;;;;;11.95;2.83;;;8.60;99.90;;;;;;4996953;28;20038;-83
2022/04/07 10:13:51;;;;;;;12.75;2.28;;;8.50;99.90;;;;;;4984368;28;20038;-83
2022/04/07 10:16:17;;;;;;;11.57;2.70;;;8.60;99.90;;;;;;4978724;28;20045;-83
2022/04/07 10:19:12;;;;;;;12.98;3.05;;;8.70;99.90;;;;;;4978720;28;20046;-83
2022/04/07 10:21:53;;;;;;;14.02;2.92;;;8.80;99.90;;;;;;5003864;28;20141;-85
2022/04/07 10:24:18;;;;;;;12.80;2.75;;;9.00;99.90;;;;;;4995647;28;20045;-85
2022/04/07 10:26:46;;;;;;;11.63;2.50;;;9.00;99.90;;;;;;5004701;28;20527;-85
2022/04/07 10:29:24;;;;;;;10.30;2.38;;;9.10;99.90;;;;;;5003573;28;20100;-85
2022/04/07 10:32:11;;;;;;;18.80;2.67;;;8.90;99.90;;;;;;5024325;28;20042;-85
2022/04/07 10:34:54;;;;;;;16.50;3.20;;;8.70;99.90;;;;;;4998397;28;20053;-85
2022/04/07 10:37:50;;;;;;;13.80;3.03;;;8.80;99.90;;;;;;5003712;28;20130;-85
2022/04/07 10:40:35;;;;;;;12.38;2.78;;;8.90;99.90;;;;;;4983956;28;20046;-80
2022/04/07 10:43:09;;;;;;;10.82;2.55;;;9.00;99.90;;;;;;4994337;28;20038;-79
2022/04/07 10:45:39;;;;;;;15.10;2.92;;;9.10;99.90;;;;;;5000290;28;20125;-79
2022/04/07 10:48:17;;;;;;;14.90;3.35;;;9.10;99.90;;;;;;5005464;28;20050;-79
2022/04/07 10:51:11;;;;;;;11.90;2.92;;;9.00;99.90;;;;;;5018398;28;20050;-79
2022/04/07 10:53:51;;;;;;;8.73;2.35;;;9.10;99.90;;;;;;4999910;28;20045;-80
2022/04/07 10:56:25;;;;;;;16.30;3.42;;;9.10;99.90;;;;;;4994617;28;20373;-83
2022/04/07 10:58:55;;;;;;;14.20;2.80;;;9.20;99.90;;;;;;4991736;28;20088;-83
2022/04/07 11:01:32;;;;;;;15.32;3.35;;;9.20;99.90;;;;;;4965954;28;20042;-84
2022/04/07 11:04:17;;;;;;;13.50;3.30;;;9.30;99.90;;;;;;4980059;28;20409;-83
2022/04/07 11:07:02;;;;;;;13.25;2.95;;;9.70;99.90;;;;;;4988360;28;20057;-83
2022/04/07 11:09:49;;;;;;;14.00;3.25;;;10.30;99.90;;;;;;4979726;28;20077;-83
2022/04/07 11:13:00;;;;;;;16.02;3.53;;;10.50;99.90;;;;;;5000436;28;20049;-80
2022/04/07 11:15:37;;;;;;;14.27;3.42;;;10.30;99.90;;;;;;4921370;29;20040;-80
2022/04/07 11:18:05;;;;;;;;;;;10.20;99.90;;;;;;4969478;28;20049;-80
2022/04/07 11:20:30;;;;;;;16.15;3.15;;;9.90;99.90;;;;;;5016644;28;19918;-80
2022/04/07 11:22:58;;;;;;;16.90;3.45;;;10.20;99.90;;;;;;4982787;28;20544;-80
2022/04/07 11:25:43;;;;;;;13.18;3.35;;;9.80;99.90;;;;;;4989545;28;20465;-80
2022/04/07 11:28:22;;;;;;;17.83;3.10;;;9.90;99.90;;;;;;4986837;28;20070;-81
2022/04/07 11:30:49;;;;;;;14.25;2.90;;;10.10;99.90;;;;;;4984958;28;20074;-81
2022/04/07 11:33:27;;;;;;;20.05;3.13;;;10.30;99.90;;;;;;4992114;28;20043;-81
2022/04/07 11:35:58;;;;;;;14.57;3.10;;;10.40;99.90;;;;;;4989212;28;20038;-81
2022/04/07 11:38:38;;;;;;;13.18;2.60;;;10.20;99.90;;;;;;4972343;28;20134;-81
2022/04/07 11:41:15;;;;;;;11.32;2.63;;;10.30;99.90;;;;;;4993412;28;20042;-81
2022/04/07 11:43:45;;;;;;;13.13;2.70;;;10.40;99.90;;;;;;4987982;28;20042;-81
2022/04/07 11:46:13;;;;;;;8.52;2.72;;;10.60;99.90;;;;;;5024178;28;20441;-81
2022/04/07 11:48:40;;;;;;;11.68;2.60;;;10.70;99.90;;;;;;4993001;28;20082;-81
2022/04/07 11:51:14;;;;;;;12.00;2.63;;;11.20;99.90;;;;;;4992101;28;20058;-81
2022/04/07 11:53:54;;;;;;;12.50;2.83;;;11.40;99.90;;;;;;4975252;28;21102;-81
2022/04/07 11:56:26;;;;;;;15.32;3.28;;;11.80;99.90;;;;;;4992160;28;20054;-81
2022/04/07 11:58:56;;;;;;;10.70;2.47;;;12.60;99.90;;;;;;4993306;28;20113;-81
2022/04/07 12:01:23;;;;;;;10.65;2.65;;;12.80;99.90;;;;;;4976124;28;20539;-81
2022/04/07 12:03:54;;;;;;;12.40;3.08;;;12.40;99.90;;;;;;4974495;28;20097;-80
2022/04/07 12:06:23;;;;;;;12.48;2.45;;;12.00;99.90;;;;;;4992099;28;20035;-80
2022/04/07 12:08:51;;;;;;;13.63;3.20;;;11.40;99.90;;;;;;4992890;28;20366;-80
2022/04/07 12:11:20;;;;;;;13.68;2.55;;;10.80;99.90;;;;;;4990685;28;20042;-80
2022/04/07 12:13:49;;;;;;;13.60;3.28;;;10.30;99.90;;;;;;4992064;28;20046;-80
2022/04/07 12:16:15;;;;;;;8.65;2.25;;;9.40;99.90;;;;;;4992332;28;20046;-79
2022/04/07 12:18:41;;;;;;;7.65;1.58;;;8.50;99.90;;;;;;4992102;28;20034;-83
2022/04/07 12:21:09;;;;;;;8.90;1.60;;;7.60;99.90;;;;;;4989828;28;20467;-83
2022/04/07 12:23:37;;;;;;;5.30;1.67;;;7.60;99.90;;;;;;4991162;28;20124;-83
2022/04/07 12:26:04;;;;;;;7.18;1.90;;;9.00;99.90;;;;;;4991857;28;20488;-86
2022/04/07 12:28:39;;;;;;;9.63;1.73;;;9.90;99.90;;;;;;4989807;28;20056;-86
2022/04/07 12:31:22;;;;;;;11.77;2.75;;;11.30;99.90;;;;;;5005029;28;20034;-86
2022/04/07 12:33:48;;;;;;;9.48;2.90;;;12.20;99.90;;;;;;4991144;28;20069;-86
2022/04/07 12:36:35;;;;;;;12.63;2.88;;;12.70;99.90;;;;;;4990489;28;20046;-84
2022/04/07 12:39:21;;;;;;;8.88;2.80;;;12.30;99.90;;;;;;4991855;28;20369;-83
2022/04/07 12:41:54;;;;;;;13.85;2.58;;;11.00;99.90;;;;;;4990773;28;20133;-83
2022/04/07 12:44:33;;;;;;;8.80;2.00;;;10.30;99.90;;;;;;4969603;28;20031;-83
2022/04/07 12:47:04;;;;;;;8.63;2.15;;;9.00;99.90;;;;;;4998563;28;20042;-83
2022/04/07 12:49:34;;;;;;;7.53;1.90;;;8.40;99.90;;;;;;4999325;28;20054;-83
2022/04/07 12:52:21;;;;;;;7.47;2.00;;;8.30;99.90;;;;;;4999451;28;20049;-83
2022/04/07 12:55:31;;;;;;;8.13;2.17;;;8.50;99.90;;;;;;4997674;28;20051;-83